createdAt,value
2017-10-21T00:00:07.222Z,92.68
2017-10-21T00:02:34.744Z,92.32
2017-10-21T00:05:02.253Z,93.66
2017-10-21T00:07:29.747Z,94.18
2017-10-21T00:09:57.259Z,93.17
2017-10-21T00:12:36.521Z,93.29
2017-10-21T00:15:04.047Z,93.52
2017-10-21T00:17:31.559Z,92.79
2017-10-21T00:19:59.371Z,92.48
2017-10-21T00:22:28.747Z,92.51
2017-10-21T00:24:56.280Z,92.66
2017-10-21T00:27:23.807Z,93.30
2017-10-21T00:29:51.320Z,93.48
2017-10-21T00:32:18.838Z,94.78
2017-10-21T00:34:46.375Z,95.13
2017-10-21T00:37:13.903Z,95.48
2017-10-21T00:39:41.419Z,94.86
2017-10-21T00:42:08.974Z,94.62
2017-10-21T00:44:36.602Z,95.40
2017-10-21T00:47:04.166Z,95.94
2017-10-21T00:49:31.698Z,96.14
2017-10-21T00:51:59.224Z,96.25
2017-10-21T00:54:26.740Z,96.26
2017-10-21T00:56:54.246Z,95.94
2017-10-21T00:59:21.759Z,95.20
2017-10-21T01:01:49.264Z,94.99
2017-10-21T01:04:16.904Z,95.30
2017-10-21T01:06:54.845Z,94.76
2017-10-21T01:09:22.418Z,94.79
2017-10-21T01:11:49.979Z,94.91
2017-10-21T01:14:17.483Z,95.89
2017-10-21T01:16:44.991Z,96.05
2017-10-21T01:19:12.530Z,96.41
2017-10-21T01:21:40.861Z,95.46
2017-10-21T01:24:08.381Z,96.00
2017-10-21T01:26:35.901Z,96.10
2017-10-21T01:29:03.503Z,96.07
2017-10-21T01:31:31.043Z,96.55
2017-10-21T01:34:00.130Z,96.72
2017-10-21T01:36:27.645Z,97.18
2017-10-21T01:38:55.187Z,96.70
2017-10-21T01:41:22.692Z,95.87
2017-10-21T01:43:50.222Z,95.74
2017-10-21T01:46:17.719Z,96.21
2017-10-21T01:48:45.247Z,97.04
2017-10-21T01:51:12.865Z,97.42
2017-10-21T01:53:40.389Z,97.19
2017-10-21T02:08:00.723Z,98.15
2017-10-21T02:10:28.351Z,97.82
2017-10-21T02:12:55.885Z,97.15
2017-10-21T02:15:23.407Z,96.40
2017-10-21T02:17:50.916Z,96.79
2017-10-21T02:20:18.435Z,96.93
2017-10-21T02:34:49.196Z,95.42
2017-10-21T02:37:17.394Z,95.58
2017-10-21T02:39:44.907Z,95.04
2017-10-21T02:42:12.422Z,94.82
2017-10-21T02:44:40.043Z,95.38
2017-10-21T02:47:07.565Z,95.89
2017-10-21T02:49:35.096Z,95.49
2017-10-21T02:52:02.633Z,95.59
2017-10-21T02:54:30.152Z,96.59
2017-10-21T02:56:57.668Z,97.61
2017-10-21T02:59:25.211Z,97.43
2017-10-21T03:01:52.748Z,96.74
2017-10-21T03:04:20.261Z,97.21
2017-10-21T03:06:47.776Z,97.22
2017-10-21T03:09:15.300Z,96.21
2017-10-21T03:11:42.814Z,95.89
2017-10-21T03:14:10.344Z,95.82
2017-10-21T03:16:37.858Z,96.60
2017-10-21T03:19:05.454Z,97.27
2017-10-21T03:21:33.013Z,97.58
2017-10-21T03:24:00.525Z,97.88
2017-10-21T03:26:28.046Z,97.72
2017-10-21T03:28:55.567Z,98.00
2017-10-21T03:31:23.060Z,97.43
2017-10-21T03:33:50.559Z,97.64
2017-10-21T03:47:50.821Z,96.60
2017-10-21T03:50:18.334Z,96.23
2017-10-21T03:52:45.843Z,96.04
2017-10-21T03:55:13.343Z,95.92
2017-10-21T03:57:40.879Z,96.52
2017-10-21T04:00:08.387Z,96.98
2017-10-21T04:02:35.900Z,96.99
2017-10-21T04:05:03.417Z,97.13
2017-10-21T04:07:30.926Z,97.54
2017-10-21T04:09:58.430Z,97.42
2017-10-21T04:12:25.951Z,97.60
2017-10-21T04:14:53.459Z,97.53
2017-10-21T04:17:20.992Z,97.38
2017-10-21T04:19:48.496Z,96.69
2017-10-21T04:22:16.042Z,95.81
2017-10-21T04:24:43.548Z,95.98
2017-10-21T04:27:11.068Z,95.62
2017-10-21T04:29:38.584Z,94.32
2017-10-21T04:32:06.107Z,94.24
2017-10-21T04:34:33.620Z,94.12
2017-10-21T04:37:01.130Z,94.00
2017-10-21T04:39:28.639Z,94.03
2017-10-21T04:44:53.313Z,94.21
2017-10-21T04:47:20.820Z,94.23
2017-10-21T04:49:48.341Z,94.71
2017-10-21T04:52:15.851Z,95.34
2017-10-21T04:54:43.377Z,94.83
2017-10-21T04:57:10.883Z,94.21
2017-10-21T04:59:38.399Z,94.67
2017-10-21T05:02:05.912Z,94.52
2017-10-21T05:07:29.680Z,95.38
2017-10-21T05:09:57.180Z,96.09
2017-10-21T05:12:24.691Z,96.76
2017-10-21T05:14:52.204Z,97.14
2017-10-21T05:17:19.751Z,98.14
2017-10-21T05:19:47.307Z,98.51
2017-10-21T05:22:15.653Z,98.83
2017-10-21T05:24:43.161Z,99.20
2017-10-21T05:27:10.685Z,99.22
2017-10-21T05:29:38.224Z,99.00
2017-10-21T05:32:05.750Z,98.49
2017-10-21T05:34:33.299Z,98.60
2017-10-21T05:37:01.138Z,98.39
2017-10-21T05:39:28.655Z,98.20
2017-10-21T05:41:56.174Z,97.82
2017-10-21T05:44:23.695Z,98.13
2017-10-21T05:46:51.214Z,98.18
2017-10-21T05:49:18.746Z,97.73
2017-10-21T05:51:46.271Z,97.25
2017-10-21T05:54:13.805Z,97.51
2017-10-21T05:56:41.317Z,97.83
2017-10-21T05:59:08.824Z,97.70
2017-10-21T06:01:36.336Z,97.63
2017-10-21T06:04:03.848Z,97.66
2017-10-21T06:18:04.216Z,97.70
2017-10-21T06:20:31.724Z,97.42
2017-10-21T06:22:59.233Z,97.34
2017-10-21T06:25:26.752Z,97.40
2017-10-21T06:27:54.277Z,97.70
2017-10-21T06:30:21.790Z,98.04
2017-10-21T06:32:49.328Z,97.56
2017-10-21T06:35:16.858Z,96.81
2017-10-21T06:37:44.378Z,96.61
2017-10-21T06:40:11.895Z,96.17
2017-10-21T06:42:39.396Z,95.49
2017-10-21T06:45:07.013Z,94.56
2017-10-21T06:47:34.546Z,93.33
2017-10-21T06:50:02.059Z,92.59
2017-10-21T06:52:29.586Z,91.88
2017-10-21T06:54:57.120Z,91.94
2017-10-21T06:57:24.634Z,91.90
2017-10-21T06:59:52.148Z,91.49
2017-10-21T07:02:19.661Z,90.14
2017-10-21T07:04:47.198Z,89.62
2017-10-21T07:07:14.703Z,90.63
2017-10-21T07:09:42.229Z,87.78
2017-10-21T07:12:09.745Z,88.41
2017-10-21T07:14:37.276Z,88.72
2017-10-21T07:17:04.816Z,89.28
2017-10-21T07:19:32.366Z,88.23
2017-10-21T07:21:59.895Z,88.01
2017-10-21T07:24:27.429Z,88.18
2017-10-21T07:26:54.953Z,87.45
2017-10-21T07:29:22.560Z,85.40
2017-10-21T07:31:50.093Z,87.38
2017-10-21T07:34:26.774Z,87.09
2017-10-21T07:36:54.278Z,87.02
2017-10-21T07:39:21.823Z,86.86
2017-10-21T07:41:49.342Z,84.44
2017-10-21T07:44:16.850Z,85.33
2017-10-21T07:46:44.368Z,84.55
2017-10-21T07:49:11.942Z,83.70
2017-10-21T07:51:39.498Z,82.97
2017-10-21T07:54:07.008Z,84.16
2017-10-21T07:56:34.539Z,80.91
2017-10-21T07:59:02.078Z,77.93
2017-10-21T08:01:29.604Z,72.75
2017-10-21T08:03:57.659Z,71.17
2017-10-21T08:06:28.143Z,69.96
2017-10-21T08:08:55.682Z,70.22
2017-10-21T08:11:23.208Z,64.16
2017-10-21T08:13:50.719Z,60.27
2017-10-21T08:16:28.547Z,63.43
2017-10-21T08:18:56.163Z,58.82
2017-10-21T08:21:23.693Z,56.32
2017-10-21T08:23:51.271Z,58.57
2017-10-21T08:26:18.901Z,54.57
2017-10-21T08:28:46.417Z,53.26
2017-10-21T08:31:13.984Z,50.86
2017-10-21T08:33:41.492Z,47.52
2017-10-21T08:36:09.001Z,47.46
2017-10-21T08:38:36.519Z,48.29
2017-10-21T08:41:04.049Z,53.03
2017-10-21T08:43:31.567Z,56.35
2017-10-21T08:45:59.085Z,60.19
2017-10-21T08:48:26.711Z,63.84
2017-10-21T08:50:54.258Z,60.59
2017-10-21T08:53:21.789Z,56.67
2017-10-21T08:55:49.340Z,47.96
2017-10-21T08:58:16.853Z,49.36
2017-10-21T09:00:44.408Z,52.19
2017-10-21T09:03:11.924Z,42.60
2017-10-21T09:05:39.469Z,41.48
2017-10-21T09:08:06.992Z,38.41
2017-10-21T09:10:34.491Z,46.68
2017-10-21T09:13:01.999Z,43.67
2017-10-21T09:15:29.538Z,43.65
2017-10-21T09:17:57.162Z,37.35
2017-10-21T09:20:24.671Z,37.95
2017-10-21T09:22:52.257Z,36.04
2017-10-21T09:25:19.764Z,32.64
2017-10-21T09:27:47.297Z,33.01
2017-10-21T09:30:14.814Z,33.83
2017-10-21T09:32:42.457Z,36.17
2017-10-21T09:35:09.962Z,35.20
2017-10-21T09:37:37.496Z,35.15
2017-10-21T09:40:05.039Z,33.70
2017-10-21T09:42:32.564Z,34.50
2017-10-21T09:45:00.083Z,31.44
2017-10-21T09:50:23.808Z,38.89
2017-10-21T09:52:51.336Z,40.39
2017-10-21T09:55:18.890Z,42.95
2017-10-21T09:57:46.396Z,46.62
2017-10-21T10:00:23.822Z,46.29
2017-10-21T10:03:07.108Z,45.20
2017-10-21T10:05:34.669Z,38.91
2017-10-21T10:08:02.199Z,36.50
2017-10-21T10:10:29.712Z,34.86
2017-10-21T10:12:57.225Z,33.30
2017-10-21T10:15:24.743Z,34.53
2017-10-21T10:17:52.276Z,39.48
2017-10-21T10:20:36.512Z,41.29
2017-10-21T10:23:04.021Z,43.61
2017-10-21T10:25:31.570Z,47.23
2017-10-21T10:27:59.084Z,49.20
2017-10-21T10:36:36.539Z,52.56
2017-10-21T10:46:30.043Z,53.38
2017-10-21T10:48:57.560Z,51.59
2017-10-21T10:51:25.088Z,51.62
2017-10-21T10:53:52.610Z,50.50
2017-10-21T10:56:20.112Z,49.14
2017-10-21T10:58:47.653Z,50.25
2017-10-21T11:01:15.162Z,51.50
2017-10-21T11:03:42.668Z,52.04
2017-10-21T11:06:10.223Z,51.26
2017-10-21T11:08:37.729Z,49.46
2017-10-21T11:11:05.239Z,50.44
2017-10-21T11:13:32.760Z,51.42
2017-10-21T11:33:16.984Z,50.57
2017-10-21T11:36:06.417Z,50.02
2017-10-21T11:41:37.328Z,48.37
2017-10-21T11:44:04.827Z,46.56
2017-10-21T11:46:32.338Z,47.48
2017-10-21T11:49:00.700Z,47.92
2017-10-21T11:51:43.141Z,47.79
2017-10-21T11:54:10.652Z,48.88
2017-10-21T11:56:39.042Z,48.55
2017-10-21T11:59:06.551Z,48.31
2017-10-21T12:01:34.063Z,48.97
2017-10-21T12:04:01.575Z,48.63
2017-10-21T12:06:29.080Z,49.80
2017-10-21T12:08:56.592Z,49.74
2017-10-21T12:11:24.209Z,50.51
2017-10-21T12:13:52.705Z,50.26
2017-10-21T12:16:20.215Z,50.75
2017-10-21T12:18:47.729Z,51.21
2017-10-21T12:21:15.261Z,51.63
2017-10-21T12:23:42.783Z,50.81
2017-10-21T12:26:17.263Z,52.63
2017-10-21T12:28:47.611Z,53.63
2017-10-21T12:31:15.122Z,52.77
2017-10-21T12:33:42.658Z,52.75
2017-10-21T12:36:10.183Z,50.75
2017-10-21T12:38:37.703Z,50.52
2017-10-21T12:41:05.198Z,50.79
2017-10-21T12:43:32.730Z,50.00
2017-10-21T12:46:00.261Z,50.72
2017-10-21T12:48:27.820Z,48.98
2017-10-21T12:50:55.331Z,49.43
2017-10-21T12:53:22.846Z,49.29
2017-10-21T12:55:57.975Z,50.86
2017-10-21T12:58:26.451Z,50.59
2017-10-21T13:00:53.971Z,52.40
2017-10-21T13:03:21.492Z,51.43
2017-10-21T13:05:48.996Z,50.76
2017-10-21T13:08:17.227Z,51.32
2017-10-21T13:10:44.765Z,52.39
2017-10-21T13:13:12.287Z,53.06
2017-10-21T13:18:36.803Z,53.66
2017-10-21T13:21:04.339Z,54.14
2017-10-21T13:23:31.845Z,55.38
2017-10-21T13:25:59.375Z,55.22
2017-10-21T13:28:26.963Z,54.03
2017-10-21T13:30:54.492Z,55.22
2017-10-21T13:33:22.003Z,56.05
2017-10-21T13:35:49.529Z,57.59
2017-10-21T13:38:17.045Z,55.80
2017-10-21T13:40:44.580Z,55.37
2017-10-21T13:46:08.406Z,57.13
2017-10-21T13:48:35.925Z,56.90
2017-10-21T13:51:03.435Z,56.79
2017-10-21T13:53:30.955Z,57.39
2017-10-21T13:55:58.511Z,56.94
2017-10-21T13:58:26.052Z,57.78
2017-10-21T14:00:53.548Z,59.81
2017-10-21T14:03:21.060Z,61.02
2017-10-21T14:05:48.654Z,61.34
2017-10-21T14:08:16.148Z,59.11
2017-10-21T14:10:43.683Z,54.97
2017-10-21T14:13:11.187Z,56.73
2017-10-21T14:15:38.724Z,57.10
2017-10-21T14:18:06.305Z,57.33
2017-10-21T14:20:33.833Z,57.27
2017-10-21T14:23:01.372Z,57.40
2017-10-21T14:25:28.909Z,56.24
2017-10-21T14:27:56.446Z,55.87
2017-10-21T14:30:24.003Z,55.78
2017-10-21T14:32:51.531Z,55.03
2017-10-21T14:35:19.052Z,55.69
2017-10-21T14:37:46.568Z,55.24
2017-10-21T14:43:10.306Z,54.49
2017-10-21T14:45:38.318Z,55.67
2017-10-21T14:48:06.484Z,57.40
2017-10-21T14:50:34.003Z,56.97
2017-10-21T14:53:01.541Z,60.21
2017-10-21T14:55:29.063Z,61.47
2017-10-21T14:57:56.580Z,62.22
2017-10-21T15:00:24.193Z,60.90
2017-10-21T15:02:51.714Z,60.91
2017-10-21T15:05:19.255Z,61.47
2017-10-21T15:07:46.819Z,61.86
2017-10-21T15:10:14.336Z,62.89
2017-10-21T15:12:41.870Z,60.60
2017-10-21T15:15:09.406Z,62.39
2017-10-21T15:17:36.950Z,63.62
2017-10-21T15:20:04.496Z,64.70
2017-10-21T15:22:32.072Z,65.77
2017-10-21T15:24:59.598Z,66.72
2017-10-21T15:27:27.106Z,66.21
2017-10-21T15:29:54.622Z,62.77
2017-10-21T15:32:22.146Z,64.83
2017-10-21T15:34:49.664Z,65.08
2017-10-21T15:37:17.225Z,66.24
2017-10-21T15:39:44.747Z,66.92
2017-10-21T15:42:12.244Z,67.97
2017-10-21T15:44:40.666Z,68.03
2017-10-21T15:47:08.172Z,70.72
2017-10-21T15:49:35.706Z,72.40
2017-10-21T15:52:13.148Z,73.03
2017-10-21T15:54:40.976Z,75.46
2017-10-21T15:57:08.476Z,77.87
2017-10-21T15:59:36.022Z,77.42
2017-10-21T16:02:03.544Z,79.13
2017-10-21T16:04:31.056Z,81.09
2017-10-21T16:06:58.607Z,80.91
2017-10-21T16:09:26.116Z,80.74
2017-10-21T16:11:53.775Z,81.59
2017-10-21T16:14:21.299Z,82.99
2017-10-21T16:16:48.839Z,82.61
2017-10-21T16:19:16.519Z,82.43
2017-10-21T16:21:44.033Z,81.54
2017-10-21T16:24:11.563Z,81.56
2017-10-21T16:26:39.095Z,79.88
2017-10-21T16:29:06.653Z,81.41
2017-10-21T16:31:34.190Z,81.59
2017-10-21T16:39:56.197Z,82.56
2017-10-21T16:42:24.477Z,82.36
2017-10-21T16:44:52.267Z,82.58
2017-10-21T16:47:19.772Z,84.81
2017-10-21T16:49:47.331Z,85.74
2017-10-21T16:52:15.417Z,84.44
2017-10-21T16:54:42.939Z,85.78
2017-10-21T16:57:10.478Z,86.12
2017-10-21T17:11:10.696Z,80.64
2017-10-21T17:13:38.248Z,76.56
2017-10-21T17:16:05.784Z,75.69
2017-10-21T17:18:43.238Z,74.33
2017-10-21T17:21:10.767Z,74.03
2017-10-21T17:23:38.272Z,75.01
2017-10-21T17:26:05.852Z,75.54
2017-10-21T17:28:33.407Z,76.05
2017-10-21T17:31:00.907Z,76.58
2017-10-21T17:33:28.423Z,78.20
2017-10-21T17:35:55.968Z,79.09
2017-10-21T17:38:23.468Z,80.96
2017-10-21T17:40:50.978Z,81.08
2017-10-21T17:43:28.815Z,80.87
2017-10-21T17:45:56.410Z,80.41
2017-10-21T17:48:23.953Z,79.63
2017-10-21T17:50:51.466Z,80.27
2017-10-21T17:53:19.010Z,80.04
2017-10-21T17:55:46.565Z,79.74
2017-10-21T17:58:14.093Z,78.62
2017-10-21T18:00:41.606Z,78.42
2017-10-21T18:03:09.185Z,79.65
2017-10-21T18:05:36.692Z,78.21
2017-10-21T18:08:04.337Z,78.62
2017-10-21T18:10:31.869Z,77.27
2017-10-21T18:12:59.407Z,77.55
2017-10-21T18:15:26.953Z,77.57
2017-10-21T18:17:54.910Z,78.87
2017-10-21T18:20:22.423Z,80.00
2017-10-21T18:22:49.963Z,81.28
2017-10-21T18:25:17.615Z,83.01
2017-10-21T18:27:45.152Z,84.55
2017-10-21T18:30:12.771Z,85.19
2017-10-21T18:35:36.508Z,86.76
2017-10-21T18:38:04.040Z,86.85
2017-10-21T18:40:46.471Z,83.21
2017-10-21T18:43:13.992Z,86.44
2017-10-21T18:45:41.542Z,86.27
2017-10-21T18:48:09.061Z,85.96
2017-10-21T18:50:36.594Z,86.25
2017-10-21T18:53:04.120Z,83.17
2017-10-21T18:55:31.641Z,83.51
2017-10-21T18:57:59.159Z,82.91
2017-10-21T19:00:26.704Z,82.69
2017-10-21T19:02:54.238Z,85.72
2017-10-21T19:05:21.910Z,86.06
2017-10-21T19:07:49.431Z,86.39
2017-10-21T19:10:17.028Z,88.18
2017-10-21T19:12:44.851Z,85.70
2017-10-21T19:15:12.365Z,87.04
2017-10-21T19:17:39.964Z,86.71
2017-10-21T19:20:07.500Z,88.44
2017-10-21T19:22:35.040Z,91.85
2017-10-21T19:25:02.955Z,93.44
2017-10-21T19:27:30.494Z,94.17
2017-10-21T19:29:58.019Z,89.44
2017-10-21T19:32:25.531Z,89.27
2017-10-21T19:34:53.068Z,91.16
2017-10-21T19:37:20.687Z,91.89
2017-10-21T19:39:48.223Z,90.11
2017-10-21T19:42:15.827Z,87.49
2017-10-21T19:44:48.563Z,88.86
2017-10-21T19:47:16.079Z,89.03
2017-10-21T19:52:43.775Z,89.25
2017-10-21T19:55:11.325Z,85.15
2017-10-21T19:57:38.857Z,87.60
2017-10-21T20:00:06.608Z,87.73
2017-10-21T20:02:34.155Z,90.96
2017-10-21T20:05:12.031Z,89.05
2017-10-21T20:07:39.576Z,87.42
2017-10-21T20:10:07.453Z,87.31
2017-10-21T20:12:35.043Z,87.74
2017-10-21T20:15:02.580Z,86.24
2017-10-21T20:17:30.084Z,87.61
2017-10-21T20:19:57.614Z,89.74
2017-10-21T20:22:25.126Z,89.03
2017-10-21T20:24:52.659Z,91.42
2017-10-21T20:42:08.856Z,95.68
2017-10-21T20:44:36.485Z,94.99
2017-10-21T20:47:04.059Z,94.88
2017-10-21T20:49:31.584Z,94.47
2017-10-21T20:51:59.084Z,94.04
2017-10-21T20:54:26.593Z,94.80
2017-10-21T20:56:54.126Z,95.98
2017-10-21T20:59:21.640Z,97.13
2017-10-21T21:01:49.180Z,96.03
2017-10-21T21:04:16.711Z,94.53
2017-10-21T21:06:44.219Z,95.95
2017-10-21T21:09:11.974Z,94.39
2017-10-21T21:11:39.520Z,92.75
2017-10-21T21:14:07.042Z,94.55
2017-10-21T21:16:34.568Z,94.08
2017-10-21T21:19:02.091Z,95.29
2017-10-21T21:21:29.626Z,95.23
2017-10-21T21:23:57.160Z,94.25
2017-10-21T21:26:24.779Z,94.32
2017-10-21T21:28:52.297Z,95.09
2017-10-21T21:31:19.829Z,94.15
2017-10-21T21:33:47.344Z,94.53
2017-10-21T21:36:25.672Z,94.02
2017-10-21T21:38:53.197Z,95.33
2017-10-21T21:41:20.722Z,96.65
2017-10-21T21:43:48.243Z,95.89
2017-10-21T21:46:15.780Z,97.42
2017-10-21T21:48:43.292Z,96.38
2017-10-21T21:51:10.803Z,96.28
2017-10-21T21:53:38.327Z,96.10
2017-10-21T21:56:10.821Z,96.25
2017-10-21T21:58:38.328Z,93.37
2017-10-21T22:01:05.849Z,93.76
2017-10-21T22:03:33.372Z,96.06
2017-10-21T22:06:11.626Z,97.01
2017-10-21T22:08:39.145Z,97.46
2017-10-21T22:11:06.682Z,95.89
2017-10-21T22:13:34.187Z,95.20
2017-10-21T22:16:08.813Z,94.92
2017-10-21T22:18:36.340Z,95.06
2017-10-21T22:21:03.906Z,93.70
2017-10-21T22:23:31.415Z,94.75
2017-10-21T22:28:57.944Z,94.78
2017-10-21T22:31:25.483Z,95.42
2017-10-21T22:33:53.007Z,94.62
2017-10-21T22:36:20.510Z,93.73
2017-10-21T22:38:48.048Z,93.33
2017-10-21T22:41:15.561Z,93.53
2017-10-21T22:43:43.073Z,93.04
2017-10-21T22:46:10.588Z,92.18
2017-10-21T22:48:38.097Z,92.71
2017-10-21T22:51:05.604Z,91.91
2017-10-21T22:53:33.136Z,91.60
2017-10-21T22:56:00.655Z,91.87
2017-10-21T22:58:28.188Z,91.32
2017-10-21T23:00:55.702Z,91.77
2017-10-21T23:03:23.215Z,92.30
2017-10-21T23:05:50.721Z,92.33
2017-10-21T23:08:18.270Z,91.75
2017-10-21T23:10:45.813Z,91.83
2017-10-21T23:13:13.320Z,91.59
2017-10-21T23:15:40.828Z,90.74
2017-10-21T23:18:08.337Z,91.57
2017-10-21T23:20:35.852Z,91.62
2017-10-21T23:23:03.346Z,90.92
2017-10-21T23:25:30.848Z,90.47
2017-10-21T23:27:58.352Z,90.41
2017-10-21T23:30:25.877Z,91.26
2017-10-21T23:32:53.464Z,92.04
2017-10-21T23:35:20.976Z,91.48
2017-10-21T23:37:48.512Z,90.48
2017-10-21T23:40:16.029Z,90.98
2017-10-21T23:42:43.540Z,90.43
2017-10-21T23:45:11.075Z,89.61
2017-10-21T23:47:38.585Z,91.02
2017-10-21T23:50:06.097Z,90.86
2017-10-21T23:52:33.642Z,90.49
2017-10-21T23:55:01.171Z,90.46
2017-10-21T23:57:28.679Z,89.70
2017-10-21T23:59:56.173Z,90.39
